sensor_id;sensor_type;location;lat;lon;timestamp;temperature;humidity
7970;DHT22;4030;52.362;9.206;2024-01-06T00:01:45;8.00;99.90
7970;DHT22;4030;52.362;9.206;2024-01-06T00:04:10;8.00;99.90
7970;DHT22;4030;52.362;9.206;2024-01-06T00:06:36;7.90;99.90
7970;DHT22;4030;52.362;9.206;2024-01-06T00:09:02;8.00;99.90
7970;DHT22;4030;52.362;9.206;2024-01-06T00:11:28;8.00;99.90
7970;DHT22;4030;52.362;9.206;2024-01-06T00:13:54;8.00;99.90
7970;DHT22;4030;52.362;9.206;2024-01-06T00:16:20;8.00;99.90
7970;DHT22;4030;52.362;9.206;2024-01-06T00:18:46;7.90;99.90
7970;DHT22;4030;52.362;9.206;2024-01-06T00:21:13;8.00;99.90
7970;DHT22;4030;52.362;9.206;2024-01-06T00:23:40;8.00;99.90
7970;DHT22;4030;52.362;9.206;2024-01-06T00:26:07;8.00;99.90
7970;DHT22;4030;52.362;9.206;2024-01-06T00:28:34;8.00;99.90
7970;DHT22;4030;52.362;9.206;2024-01-06T00:30:59;8.00;99.90
7970;DHT22;4030;52.362;9.206;2024-01-06T00:33:25;8.00;99.90
7970;DHT22;4030;52.362;9.206;2024-01-06T00:35:50;8.00;99.90
7970;DHT22;4030;52.362;9.206;2024-01-06T00:38:16;8.00;99.90
7970;DHT22;4030;52.362;9.206;2024-01-06T00:40:42;8.00;99.90
7970;DHT22;4030;52.362;9.206;2024-01-06T00:43:08;7.90;99.90
7970;DHT22;4030;52.362;9.206;2024-01-06T00:45:33;8.00;99.90
7970;DHT22;4030;52.362;9.206;2024-01-06T00:47:59;7.90;99.90
7970;DHT22;4030;52.362;9.206;2024-01-06T00:50:25;8.00;99.90
7970;DHT22;4030;52.362;9.206;2024-01-06T00:52:50;8.00;99.90
7970;DHT22;4030;52.362;9.206;2024-01-06T00:55:21;7.90;99.90
7970;DHT22;4030;52.362;9.206;2024-01-06T00:57:47;8.00;99.90
7970;DHT22;4030;52.362;9.206;2024-01-06T01:00:14;7.90;99.90
7970;DHT22;4030;52.362;9.206;2024-01-06T01:02:40;7.90;99.90
7970;DHT22;4030;52.362;9.206;2024-01-06T01:05:05;7.90;99.90
7970;DHT22;4030;52.362;9.206;2024-01-06T01:07:34;7.90;99.90
7970;DHT22;4030;52.362;9.206;2024-01-06T01:10:00;7.90;99.90
7970;DHT22;4030;52.362;9.206;2024-01-06T01:12:26;7.90;99.90
7970;DHT22;4030;52.362;9.206;2024-01-06T01:14:52;8.00;99.90
7970;DHT22;4030;52.362;9.206;2024-01-06T01:17:18;8.00;99.90
7970;DHT22;4030;52.362;9.206;2024-01-06T01:19:44;7.90;99.90
7970;DHT22;4030;52.362;9.206;2024-01-06T01:22:10;8.00;99.90
7970;DHT22;4030;52.362;9.206;2024-01-06T01:24:36;7.90;99.90
7970;DHT22;4030;52.362;9.206;2024-01-06T01:27:01;8.00;99.90
7970;DHT22;4030;52.362;9.206;2024-01-06T01:29:27;7.90;99.90
7970;DHT22;4030;52.362;9.206;2024-01-06T01:31:53;7.90;99.90
7970;DHT22;4030;52.362;9.206;2024-01-06T01:34:19;7.90;99.90
7970;DHT22;4030;52.362;9.206;2024-01-06T01:36:44;7.90;99.90
7970;DHT22;4030;52.362;9.206;2024-01-06T01:39:10;7.90;99.90
7970;DHT22;4030;52.362;9.206;2024-01-06T01:41:36;7.90;99.90
7970;DHT22;4030;52.362;9.206;2024-01-06T01:44:02;7.90;99.90
7970;DHT22;4030;52.362;9.206;2024-01-06T01:46:28;8.00;99.90
7970;DHT22;4030;52.362;9.206;2024-01-06T01:48:55;8.00;99.90
7970;DHT22;4030;52.362;9.206;2024-01-06T01:51:24;8.00;99.90
7970;DHT22;4030;52.362;9.206;2024-01-06T01:53:53;7.90;99.90
7970;DHT22;4030;52.362;9.206;2024-01-06T01:56:20;8.00;99.90
7970;DHT22;4030;52.362;9.206;2024-01-06T01:58:46;7.90;99.90
7970;DHT22;4030;52.362;9.206;2024-01-06T02:01:13;8.00;99.90
7970;DHT22;4030;52.362;9.206;2024-01-06T02:03:43;7.90;99.90
7970;DHT22;4030;52.362;9.206;2024-01-06T02:06:09;7.90;99.90
7970;DHT22;4030;52.362;9.206;2024-01-06T02:08:35;8.00;99.90
7970;DHT22;4030;52.362;9.206;2024-01-06T02:11:01;8.00;99.90
7970;DHT22;4030;52.362;9.206;2024-01-06T02:13:35;7.90;99.90
7970;DHT22;4030;52.362;9.206;2024-01-06T02:16:03;9.50;99.90
7970;DHT22;4030;52.362;9.206;2024-01-06T02:18:30;8.00;99.90
7970;DHT22;4030;52.362;9.206;2024-01-06T02:21:01;8.00;99.90
7970;DHT22;4030;52.362;9.206;2024-01-06T02:23:28;7.90;99.90
7970;DHT22;4030;52.362;9.206;2024-01-06T02:25:54;8.00;99.90
7970;DHT22;4030;52.362;9.206;2024-01-06T02:28:21;7.90;99.90
7970;DHT22;4030;52.362;9.206;2024-01-06T02:30:47;7.90;99.90
7970;DHT22;4030;52.362;9.206;2024-01-06T02:33:12;7.90;99.90
7970;DHT22;4030;52.362;9.206;2024-01-06T02:35:38;7.90;99.90
7970;DHT22;4030;52.362;9.206;2024-01-06T02:38:05;7.90;99.90
7970;DHT22;4030;52.362;9.206;2024-01-06T02:40:31;7.90;99.90
7970;DHT22;4030;52.362;9.206;2024-01-06T02:42:58;7.90;99.90
7970;DHT22;4030;52.362;9.206;2024-01-06T02:45:24;7.90;99.90
7970;DHT22;4030;52.362;9.206;2024-01-06T02:47:49;7.90;99.90
7970;DHT22;4030;52.362;9.206;2024-01-06T02:50:15;7.90;99.90
7970;DHT22;4030;52.362;9.206;2024-01-06T02:52:41;7.90;99.90
7970;DHT22;4030;52.362;9.206;2024-01-06T02:55:06;7.90;99.90
7970;DHT22;4030;52.362;9.206;2024-01-06T02:57:32;7.90;99.90
7970;DHT22;4030;52.362;9.206;2024-01-06T02:59:58;7.90;99.90
7970;DHT22;4030;52.362;9.206;2024-01-06T03:02:23;7.90;99.90
7970;DHT22;4030;52.362;9.206;2024-01-06T03:04:49;7.90;99.90
7970;DHT22;4030;52.362;9.206;2024-01-06T03:07:15;7.90;99.90
7970;DHT22;4030;52.362;9.206;2024-01-06T03:09:41;7.90;99.90
7970;DHT22;4030;52.362;9.206;2024-01-06T03:12:07;7.90;99.90
7970;DHT22;4030;52.362;9.206;2024-01-06T03:14:36;7.90;99.90
7970;DHT22;4030;52.362;9.206;2024-01-06T03:17:02;7.90;99.90
7970;DHT22;4030;52.362;9.206;2024-01-06T03:19:29;7.90;99.90
7970;DHT22;4030;52.362;9.206;2024-01-06T03:21:55;7.90;99.90
7970;DHT22;4030;52.362;9.206;2024-01-06T03:24:22;7.90;99.90
7970;DHT22;4030;52.362;9.206;2024-01-06T03:26:48;7.80;99.90
7970;DHT22;4030;52.362;9.206;2024-01-06T03:29:14;7.90;99.90
7970;DHT22;4030;52.362;9.206;2024-01-06T03:31:45;7.80;99.90
7970;DHT22;4030;52.362;9.206;2024-01-06T03:34:12;7.90;99.90
7970;DHT22;4030;52.362;9.206;2024-01-06T03:36:38;7.80;99.90
7970;DHT22;4030;52.362;9.206;2024-01-06T03:39:04;7.90;99.90
7970;DHT22;4030;52.362;9.206;2024-01-06T03:41:30;7.80;99.90
7970;DHT22;4030;52.362;9.206;2024-01-06T03:43:56;7.80;99.90
7970;DHT22;4030;52.362;9.206;2024-01-06T03:46:22;7.80;99.90
7970;DHT22;4030;52.362;9.206;2024-01-06T03:48:48;7.80;99.90
7970;DHT22;4030;52.362;9.206;2024-01-06T03:51:14;7.80;99.90
7970;DHT22;4030;52.362;9.206;2024-01-06T03:53:40;7.80;99.90
7970;DHT22;4030;52.362;9.206;2024-01-06T03:56:06;7.80;99.90
7970;DHT22;4030;52.362;9.206;2024-01-06T03:58:32;7.80;99.90
7970;DHT22;4030;52.362;9.206;2024-01-06T04:00:58;7.80;99.90
7970;DHT22;4030;52.362;9.206;2024-01-06T04:03:24;7.80;99.90
7970;DHT22;4030;52.362;9.206;2024-01-06T04:05:49;7.80;99.90
7970;DHT22;4030;52.362;9.206;2024-01-06T04:08:15;7.80;99.90
7970;DHT22;4030;52.362;9.206;2024-01-06T04:10:40;7.80;99.90
7970;DHT22;4030;52.362;9.206;2024-01-06T04:13:07;7.80;99.90
7970;DHT22;4030;52.362;9.206;2024-01-06T04:15:33;7.80;99.90
7970;DHT22;4030;52.362;9.206;2024-01-06T04:18:02;7.80;99.90
7970;DHT22;4030;52.362;9.206;2024-01-06T04:20:29;7.80;99.90
7970;DHT22;4030;52.362;9.206;2024-01-06T04:22:55;7.80;99.90
7970;DHT22;4030;52.362;9.206;2024-01-06T04:25:20;7.80;99.90
7970;DHT22;4030;52.362;9.206;2024-01-06T04:27:46;7.80;99.90
7970;DHT22;4030;52.362;9.206;2024-01-06T04:30:14;7.80;99.90
7970;DHT22;4030;52.362;9.206;2024-01-06T04:32:40;7.80;99.90
7970;DHT22;4030;52.362;9.206;2024-01-06T04:35:07;7.80;99.90
7970;DHT22;4030;52.362;9.206;2024-01-06T04:37:32;7.80;99.90
7970;DHT22;4030;52.362;9.206;2024-01-06T04:39:58;7.80;99.90
7970;DHT22;4030;52.362;9.206;2024-01-06T04:42:24;7.80;99.90
7970;DHT22;4030;52.362;9.206;2024-01-06T04:44:50;7.80;99.90
7970;DHT22;4030;52.362;9.206;2024-01-06T04:47:16;7.80;99.90
7970;DHT22;4030;52.362;9.206;2024-01-06T04:49:43;7.80;99.90
7970;DHT22;4030;52.362;9.206;2024-01-06T04:52:09;7.80;99.90
7970;DHT22;4030;52.362;9.206;2024-01-06T04:54:35;7.80;99.90
7970;DHT22;4030;52.362;9.206;2024-01-06T04:57:01;7.80;99.90
7970;DHT22;4030;52.362;9.206;2024-01-06T04:59:26;7.80;99.90
7970;DHT22;4030;52.362;9.206;2024-01-06T05:01:53;7.80;99.90
7970;DHT22;4030;52.362;9.206;2024-01-06T05:04:18;7.80;99.90
7970;DHT22;4030;52.362;9.206;2024-01-06T05:06:44;7.80;99.90
7970;DHT22;4030;52.362;9.206;2024-01-06T05:09:10;7.80;99.90
7970;DHT22;4030;52.362;9.206;2024-01-06T05:11:36;7.80;99.90
7970;DHT22;4030;52.362;9.206;2024-01-06T05:14:02;7.70;99.90
7970;DHT22;4030;52.362;9.206;2024-01-06T05:16:28;7.80;99.90
7970;DHT22;4030;52.362;9.206;2024-01-06T05:18:54;7.80;99.90
7970;DHT22;4030;52.362;9.206;2024-01-06T05:21:20;7.80;99.90
7970;DHT22;4030;52.362;9.206;2024-01-06T05:23:45;7.80;99.90
7970;DHT22;4030;52.362;9.206;2024-01-06T05:26:11;7.80;99.90
7970;DHT22;4030;52.362;9.206;2024-01-06T05:28:39;7.80;99.90
7970;DHT22;4030;52.362;9.206;2024-01-06T05:31:05;7.80;99.90
7970;DHT22;4030;52.362;9.206;2024-01-06T05:33:30;7.80;99.90
7970;DHT22;4030;52.362;9.206;2024-01-06T05:35:56;7.70;99.90
7970;DHT22;4030;52.362;9.206;2024-01-06T05:38:21;7.80;99.90
7970;DHT22;4030;52.362;9.206;2024-01-06T05:40:47;7.80;99.90
7970;DHT22;4030;52.362;9.206;2024-01-06T05:43:13;7.80;99.90
7970;DHT22;4030;52.362;9.206;2024-01-06T05:45:38;7.70;99.90
7970;DHT22;4030;52.362;9.206;2024-01-06T05:48:09;7.80;99.90
7970;DHT22;4030;52.362;9.206;2024-01-06T05:50:35;7.80;99.90
7970;DHT22;4030;52.362;9.206;2024-01-06T05:53:01;7.70;99.90
7970;DHT22;4030;52.362;9.206;2024-01-06T05:55:27;7.80;99.90
7970;DHT22;4030;52.362;9.206;2024-01-06T05:57:53;7.80;99.90
7970;DHT22;4030;52.362;9.206;2024-01-06T06:00:18;7.70;99.90
7970;DHT22;4030;52.362;9.206;2024-01-06T06:02:44;7.80;99.90
7970;DHT22;4030;52.362;9.206;2024-01-06T06:05:10;7.80;99.90
7970;DHT22;4030;52.362;9.206;2024-01-06T06:07:35;7.80;99.90
7970;DHT22;4030;52.362;9.206;2024-01-06T06:10:08;7.80;99.90
7970;DHT22;4030;52.362;9.206;2024-01-06T06:12:34;7.80;99.90
7970;DHT22;4030;52.362;9.206;2024-01-06T06:15:00;7.70;99.90
7970;DHT22;4030;52.362;9.206;2024-01-06T06:17:26;7.80;99.90
7970;DHT22;4030;52.362;9.206;2024-01-06T06:19:52;7.80;99.90
7970;DHT22;4030;52.362;9.206;2024-01-06T06:22:18;7.70;99.90
7970;DHT22;4030;52.362;9.206;2024-01-06T06:24:44;7.80;99.90
7970;DHT22;4030;52.362;9.206;2024-01-06T06:27:10;7.80;99.90
7970;DHT22;4030;52.362;9.206;2024-01-06T06:29:35;7.70;99.90
7970;DHT22;4030;52.362;9.206;2024-01-06T06:32:01;7.70;99.90
7970;DHT22;4030;52.362;9.206;2024-01-06T06:34:27;7.70;99.90
7970;DHT22;4030;52.362;9.206;2024-01-06T06:36:52;7.70;99.90
7970;DHT22;4030;52.362;9.206;2024-01-06T06:39:18;7.70;99.90
7970;DHT22;4030;52.362;9.206;2024-01-06T06:41:44;7.70;99.90
7970;DHT22;4030;52.362;9.206;2024-01-06T06:44:09;7.70;99.90
7970;DHT22;4030;52.362;9.206;2024-01-06T06:46:36;7.70;99.90
7970;DHT22;4030;52.362;9.206;2024-01-06T06:49:01;7.60;99.90
7970;DHT22;4030;52.362;9.206;2024-01-06T06:51:28;7.60;99.90
7970;DHT22;4030;52.362;9.206;2024-01-06T06:53:55;7.60;99.90
7970;DHT22;4030;52.362;9.206;2024-01-06T06:56:22;7.60;99.90
7970;DHT22;4030;52.362;9.206;2024-01-06T06:58:47;7.70;99.90
7970;DHT22;4030;52.362;9.206;2024-01-06T07:01:16;7.60;99.90
7970;DHT22;4030;52.362;9.206;2024-01-06T07:03:42;7.60;99.90
7970;DHT22;4030;52.362;9.206;2024-01-06T07:06:08;7.60;99.90
7970;DHT22;4030;52.362;9.206;2024-01-06T07:08:33;7.60;99.90
7970;DHT22;4030;52.362;9.206;2024-01-06T07:11:00;7.60;99.90
7970;DHT22;4030;52.362;9.206;2024-01-06T07:13:25;7.60;99.90
7970;DHT22;4030;52.362;9.206;2024-01-06T07:15:51;7.60;99.90
7970;DHT22;4030;52.362;9.206;2024-01-06T07:18:17;7.50;99.90
7970;DHT22;4030;52.362;9.206;2024-01-06T07:20:44;7.50;99.90
7970;DHT22;4030;52.362;9.206;2024-01-06T07:23:10;7.60;99.90
7970;DHT22;4030;52.362;9.206;2024-01-06T07:25:35;7.50;99.90
7970;DHT22;4030;52.362;9.206;2024-01-06T07:28:01;7.50;99.90
7970;DHT22;4030;52.362;9.206;2024-01-06T07:30:27;7.60;99.90
7970;DHT22;4030;52.362;9.206;2024-01-06T07:32:53;7.50;99.90
7970;DHT22;4030;52.362;9.206;2024-01-06T07:35:18;7.50;99.90
7970;DHT22;4030;52.362;9.206;2024-01-06T07:37:44;7.50;99.90
7970;DHT22;4030;52.362;9.206;2024-01-06T07:40:10;7.50;99.90
7970;DHT22;4030;52.362;9.206;2024-01-06T07:42:38;7.50;99.90
7970;DHT22;4030;52.362;9.206;2024-01-06T07:45:04;7.50;99.90
7970;DHT22;4030;52.362;9.206;2024-01-06T07:47:30;7.50;99.90
7970;DHT22;4030;52.362;9.206;2024-01-06T07:49:55;7.50;99.90
7970;DHT22;4030;52.362;9.206;2024-01-06T07:52:22;7.50;99.90
7970;DHT22;4030;52.362;9.206;2024-01-06T07:54:48;7.50;99.90
7970;DHT22;4030;52.362;9.206;2024-01-06T07:57:14;7.50;99.90
7970;DHT22;4030;52.362;9.206;2024-01-06T07:59:40;7.50;99.90
7970;DHT22;4030;52.362;9.206;2024-01-06T08:02:05;7.50;99.90
7970;DHT22;4030;52.362;9.206;2024-01-06T08:04:31;7.40;99.90
7970;DHT22;4030;52.362;9.206;2024-01-06T08:06:57;7.40;99.90
7970;DHT22;4030;52.362;9.206;2024-01-06T08:09:22;7.40;99.90
7970;DHT22;4030;52.362;9.206;2024-01-06T08:11:51;7.40;99.90
7970;DHT22;4030;52.362;9.206;2024-01-06T08:14:16;7.40;99.90
7970;DHT22;4030;52.362;9.206;2024-01-06T08:16:43;7.40;99.90
7970;DHT22;4030;52.362;9.206;2024-01-06T08:19:09;7.40;99.90
7970;DHT22;4030;52.362;9.206;2024-01-06T08:21:35;7.40;99.90
7970;DHT22;4030;52.362;9.206;2024-01-06T08:24:01;7.40;99.90
7970;DHT22;4030;52.362;9.206;2024-01-06T08:26:26;7.40;99.90
7970;DHT22;4030;52.362;9.206;2024-01-06T08:28:52;7.40;99.90
7970;DHT22;4030;52.362;9.206;2024-01-06T08:31:18;7.40;99.90
7970;DHT22;4030;52.362;9.206;2024-01-06T08:33:43;7.40;99.90
7970;DHT22;4030;52.362;9.206;2024-01-06T08:36:09;7.40;99.90
7970;DHT22;4030;52.362;9.206;2024-01-06T08:38:35;7.40;99.90
7970;DHT22;4030;52.362;9.206;2024-01-06T08:41:01;7.40;99.90
7970;DHT22;4030;52.362;9.206;2024-01-06T08:43:27;7.40;99.90
7970;DHT22;4030;52.362;9.206;2024-01-06T08:45:53;7.40;99.90
7970;DHT22;4030;52.362;9.206;2024-01-06T08:48:19;7.40;99.90
7970;DHT22;4030;52.362;9.206;2024-01-06T08:50:44;7.40;99.90
7970;DHT22;4030;52.362;9.206;2024-01-06T08:53:11;7.40;99.90
7970;DHT22;4030;52.362;9.206;2024-01-06T08:55:37;7.40;99.90
7970;DHT22;4030;52.362;9.206;2024-01-06T08:58:03;7.40;99.90
7970;DHT22;4030;52.362;9.206;2024-01-06T09:00:28;7.40;99.90
7970;DHT22;4030;52.362;9.206;2024-01-06T09:02:54;7.30;99.90
7970;DHT22;4030;52.362;9.206;2024-01-06T09:05:20;7.40;99.90
7970;DHT22;4030;52.362;9.206;2024-01-06T09:07:46;8.70;99.90
7970;DHT22;4030;52.362;9.206;2024-01-06T09:10:18;7.30;99.90
7970;DHT22;4030;52.362;9.206;2024-01-06T09:12:44;7.30;99.90
7970;DHT22;4030;52.362;9.206;2024-01-06T09:15:10;7.30;99.90
7970;DHT22;4030;52.362;9.206;2024-01-06T09:17:36;7.30;99.90
7970;DHT22;4030;52.362;9.206;2024-01-06T09:20:02;7.30;99.90
7970;DHT22;4030;52.362;9.206;2024-01-06T09:22:28;7.30;99.90
7970;DHT22;4030;52.362;9.206;2024-01-06T09:24:54;7.20;99.90
7970;DHT22;4030;52.362;9.206;2024-01-06T09:27:20;7.20;99.90
7970;DHT22;4030;52.362;9.206;2024-01-06T09:29:45;7.20;99.90
7970;DHT22;4030;52.362;9.206;2024-01-06T09:32:12;7.30;99.90
7970;DHT22;4030;52.362;9.206;2024-01-06T09:34:38;7.20;99.90
7970;DHT22;4030;52.362;9.206;2024-01-06T09:37:04;7.20;99.90
7970;DHT22;4030;52.362;9.206;2024-01-06T09:39:30;7.20;99.90
7970;DHT22;4030;52.362;9.206;2024-01-06T09:41:57;7.20;99.90
7970;DHT22;4030;52.362;9.206;2024-01-06T09:44:23;7.10;99.90
7970;DHT22;4030;52.362;9.206;2024-01-06T09:46:49;7.10;99.90
7970;DHT22;4030;52.362;9.206;2024-01-06T09:49:18;7.20;99.90
7970;DHT22;4030;52.362;9.206;2024-01-06T09:51:49;7.10;99.90
7970;DHT22;4030;52.362;9.206;2024-01-06T09:54:22;7.20;99.90
7970;DHT22;4030;52.362;9.206;2024-01-06T09:56:51;7.10;99.90
7970;DHT22;4030;52.362;9.206;2024-01-06T09:59:17;7.20;99.90
7970;DHT22;4030;52.362;9.206;2024-01-06T10:01:45;7.10;99.90
7970;DHT22;4030;52.362;9.206;2024-01-06T10:04:11;7.20;99.90
7970;DHT22;4030;52.362;9.206;2024-01-06T10:06:36;7.20;99.90
7970;DHT22;4030;52.362;9.206;2024-01-06T10:09:02;7.10;99.90
7970;DHT22;4030;52.362;9.206;2024-01-06T10:11:30;7.20;99.90
7970;DHT22;4030;52.362;9.206;2024-01-06T10:13:55;7.20;99.90
7970;DHT22;4030;52.362;9.206;2024-01-06T10:16:21;7.10;99.90
7970;DHT22;4030;52.362;9.206;2024-01-06T10:18:47;5.10;99.90
7970;DHT22;4030;52.362;9.206;2024-01-06T10:21:13;7.20;99.90
7970;DHT22;4030;52.362;9.206;2024-01-06T10:23:43;7.10;99.90
7970;DHT22;4030;52.362;9.206;2024-01-06T10:26:12;7.20;99.90
7970;DHT22;4030;52.362;9.206;2024-01-06T10:28:39;7.20;99.90
7970;DHT22;4030;52.362;9.206;2024-01-06T10:31:04;7.30;99.90
7970;DHT22;4030;52.362;9.206;2024-01-06T10:33:32;7.20;99.90
7970;DHT22;4030;52.362;9.206;2024-01-06T10:36:00;7.20;99.90
7970;DHT22;4030;52.362;9.206;2024-01-06T10:38:26;7.20;99.90
7970;DHT22;4030;52.362;9.206;2024-01-06T10:41:05;7.20;99.90
7970;DHT22;4030;52.362;9.206;2024-01-06T10:43:35;7.20;99.90
7970;DHT22;4030;52.362;9.206;2024-01-06T10:46:04;7.20;99.90
7970;DHT22;4030;52.362;9.206;2024-01-06T10:48:34;7.20;99.90
7970;DHT22;4030;52.362;9.206;2024-01-06T10:51:01;7.20;99.90
7970;DHT22;4030;52.362;9.206;2024-01-06T10:53:33;7.30;99.90
7970;DHT22;4030;52.362;9.206;2024-01-06T10:56:01;7.20;99.90
7970;DHT22;4030;52.362;9.206;2024-01-06T10:58:27;7.30;99.90
7970;DHT22;4030;52.362;9.206;2024-01-06T11:00:56;7.30;99.90
7970;DHT22;4030;52.362;9.206;2024-01-06T11:03:22;7.30;99.90
7970;DHT22;4030;52.362;9.206;2024-01-06T11:05:48;5.40;99.90
7970;DHT22;4030;52.362;9.206;2024-01-06T11:08:17;7.30;99.90
7970;DHT22;4030;52.362;9.206;2024-01-06T11:10:43;7.30;99.90
7970;DHT22;4030;52.362;9.206;2024-01-06T11:13:14;7.20;99.90
7970;DHT22;4030;52.362;9.206;2024-01-06T11:15:48;7.30;99.90
7970;DHT22;4030;52.362;9.206;2024-01-06T11:18:37;7.20;99.90
7970;DHT22;4030;52.362;9.206;2024-01-06T11:21:20;7.30;99.90
7970;DHT22;4030;52.362;9.206;2024-01-06T11:26:52;7.20;99.90
7970;DHT22;4030;52.362;9.206;2024-01-06T11:29:21;7.20;99.90
7970;DHT22;4030;52.362;9.206;2024-01-06T11:32:25;7.20;99.90
7970;DHT22;4030;52.362;9.206;2024-01-06T11:35:13;7.30;99.90
7970;DHT22;4030;52.362;9.206;2024-01-06T11:40:09;7.20;99.90
7970;DHT22;4030;52.362;9.206;2024-01-06T11:42:41;7.20;99.90
7970;DHT22;4030;52.362;9.206;2024-01-06T11:45:08;7.20;99.90
7970;DHT22;4030;52.362;9.206;2024-01-06T11:47:35;7.20;99.90
7970;DHT22;4030;52.362;9.206;2024-01-06T11:50:02;7.30;99.90
7970;DHT22;4030;52.362;9.206;2024-01-06T11:52:34;7.30;99.90
7970;DHT22;4030;52.362;9.206;2024-01-06T11:55:01;7.30;99.90
7970;DHT22;4030;52.362;9.206;2024-01-06T11:57:29;7.30;99.90
7970;DHT22;4030;52.362;9.206;2024-01-06T11:59:55;7.30;99.90
7970;DHT22;4030;52.362;9.206;2024-01-06T12:02:21;7.30;99.90
7970;DHT22;4030;52.362;9.206;2024-01-06T12:04:52;7.30;99.90
7970;DHT22;4030;52.362;9.206;2024-01-06T12:07:19;7.30;99.90
7970;DHT22;4030;52.362;9.206;2024-01-06T12:09:46;7.30;99.90
7970;DHT22;4030;52.362;9.206;2024-01-06T12:12:15;7.40;99.90
7970;DHT22;4030;52.362;9.206;2024-01-06T12:14:42;7.30;99.90
7970;DHT22;4030;52.362;9.206;2024-01-06T12:17:09;7.30;99.90
7970;DHT22;4030;52.362;9.206;2024-01-06T12:19:35;7.30;99.90
7970;DHT22;4030;52.362;9.206;2024-01-06T12:22:01;7.20;99.90
7970;DHT22;4030;52.362;9.206;2024-01-06T12:24:28;7.20;99.90
7970;DHT22;4030;52.362;9.206;2024-01-06T12:26:58;7.20;99.90
7970;DHT22;4030;52.362;9.206;2024-01-06T12:29:28;7.20;99.90
7970;DHT22;4030;52.362;9.206;2024-01-06T12:31:59;7.20;99.90
7970;DHT22;4030;52.362;9.206;2024-01-06T12:34:25;7.10;99.90
7970;DHT22;4030;52.362;9.206;2024-01-06T12:36:53;7.10;99.90
7970;DHT22;4030;52.362;9.206;2024-01-06T12:39:20;7.10;99.90
7970;DHT22;4030;52.362;9.206;2024-01-06T12:41:46;7.20;99.90
7970;DHT22;4030;52.362;9.206;2024-01-06T12:44:12;7.10;99.90
7970;DHT22;4030;52.362;9.206;2024-01-06T12:46:38;7.10;99.90
7970;DHT22;4030;52.362;9.206;2024-01-06T12:49:04;7.10;99.90
7970;DHT22;4030;52.362;9.206;2024-01-06T12:51:29;7.10;99.90
7970;DHT22;4030;52.362;9.206;2024-01-06T12:53:55;7.10;99.90
7970;DHT22;4030;52.362;9.206;2024-01-06T12:56:21;7.10;99.90
7970;DHT22;4030;52.362;9.206;2024-01-06T12:58:47;7.10;99.90
7970;DHT22;4030;52.362;9.206;2024-01-06T13:01:12;7.10;99.90
7970;DHT22;4030;52.362;9.206;2024-01-06T13:03:38;7.10;99.90
7970;DHT22;4030;52.362;9.206;2024-01-06T13:06:04;7.00;99.90
7970;DHT22;4030;52.362;9.206;2024-01-06T13:08:30;7.10;99.90
7970;DHT22;4030;52.362;9.206;2024-01-06T13:10:56;7.00;99.90
7970;DHT22;4030;52.362;9.206;2024-01-06T13:13:22;7.00;99.90
7970;DHT22;4030;52.362;9.206;2024-01-06T13:15:47;7.00;99.90
7970;DHT22;4030;52.362;9.206;2024-01-06T13:18:13;7.00;99.90
7970;DHT22;4030;52.362;9.206;2024-01-06T13:20:39;7.00;99.90
7970;DHT22;4030;52.362;9.206;2024-01-06T13:23:09;7.00;99.90
7970;DHT22;4030;52.362;9.206;2024-01-06T13:25:37;7.00;99.90
7970;DHT22;4030;52.362;9.206;2024-01-06T13:28:06;6.90;99.90
7970;DHT22;4030;52.362;9.206;2024-01-06T13:30:33;6.90;99.90
7970;DHT22;4030;52.362;9.206;2024-01-06T13:32:59;7.00;99.90
7970;DHT22;4030;52.362;9.206;2024-01-06T13:35:25;7.00;99.90
7970;DHT22;4030;52.362;9.206;2024-01-06T13:37:52;6.90;99.90
7970;DHT22;4030;52.362;9.206;2024-01-06T13:40:18;6.90;99.90
7970;DHT22;4030;52.362;9.206;2024-01-06T13:42:48;6.80;99.90
7970;DHT22;4030;52.362;9.206;2024-01-06T13:45:16;6.80;99.90
7970;DHT22;4030;52.362;9.206;2024-01-06T13:47:41;6.80;99.90
7970;DHT22;4030;52.362;9.206;2024-01-06T13:50:13;6.80;99.90
7970;DHT22;4030;52.362;9.206;2024-01-06T13:52:40;6.70;99.90
7970;DHT22;4030;52.362;9.206;2024-01-06T13:55:06;6.70;99.90
7970;DHT22;4030;52.362;9.206;2024-01-06T13:57:32;6.70;99.90
7970;DHT22;4030;52.362;9.206;2024-01-06T13:59:58;6.70;99.90
7970;DHT22;4030;52.362;9.206;2024-01-06T14:02:24;6.70;99.90
7970;DHT22;4030;52.362;9.206;2024-01-06T14:04:50;6.60;99.90
7970;DHT22;4030;52.362;9.206;2024-01-06T14:07:16;6.70;99.90
7970;DHT22;4030;52.362;9.206;2024-01-06T14:09:46;6.60;99.90
7970;DHT22;4030;52.362;9.206;2024-01-06T14:12:12;6.60;99.90
7970;DHT22;4030;52.362;9.206;2024-01-06T14:14:39;6.60;99.90
7970;DHT22;4030;52.362;9.206;2024-01-06T14:17:05;6.60;99.90
7970;DHT22;4030;52.362;9.206;2024-01-06T14:19:30;6.60;99.90
7970;DHT22;4030;52.362;9.206;2024-01-06T14:21:56;6.60;99.90
7970;DHT22;4030;52.362;9.206;2024-01-06T14:24:22;6.50;99.90
7970;DHT22;4030;52.362;9.206;2024-01-06T14:26:51;6.60;99.90
7970;DHT22;4030;52.362;9.206;2024-01-06T14:29:18;6.50;99.90
7970;DHT22;4030;52.362;9.206;2024-01-06T14:31:44;6.50;99.90
7970;DHT22;4030;52.362;9.206;2024-01-06T14:34:09;6.50;99.90
7970;DHT22;4030;52.362;9.206;2024-01-06T14:36:35;6.50;99.90
7970;DHT22;4030;52.362;9.206;2024-01-06T14:39:01;6.50;99.90
7970;DHT22;4030;52.362;9.206;2024-01-06T14:41:29;6.40;99.90
7970;DHT22;4030;52.362;9.206;2024-01-06T14:43:55;6.40;99.90
7970;DHT22;4030;52.362;9.206;2024-01-06T14:46:20;6.40;99.90
7970;DHT22;4030;52.362;9.206;2024-01-06T14:48:46;6.40;99.90
7970;DHT22;4030;52.362;9.206;2024-01-06T14:51:11;6.30;99.90
7970;DHT22;4030;52.362;9.206;2024-01-06T14:53:37;6.30;99.90
7970;DHT22;4030;52.362;9.206;2024-01-06T14:56:03;6.30;99.90
7970;DHT22;4030;52.362;9.206;2024-01-06T14:58:30;6.30;99.90
7970;DHT22;4030;52.362;9.206;2024-01-06T15:00:55;6.30;99.90
7970;DHT22;4030;52.362;9.206;2024-01-06T15:03:21;6.30;99.90
7970;DHT22;4030;52.362;9.206;2024-01-06T15:05:49;6.20;99.90
7970;DHT22;4030;52.362;9.206;2024-01-06T15:08:15;6.20;99.90
7970;DHT22;4030;52.362;9.206;2024-01-06T15:10:40;6.20;99.90
7970;DHT22;4030;52.362;9.206;2024-01-06T15:13:06;6.20;99.90
7970;DHT22;4030;52.362;9.206;2024-01-06T15:15:32;6.20;99.90
7970;DHT22;4030;52.362;9.206;2024-01-06T15:17:57;6.20;99.90
7970;DHT22;4030;52.362;9.206;2024-01-06T15:20:23;6.10;99.90
7970;DHT22;4030;52.362;9.206;2024-01-06T15:22:49;6.10;99.90
7970;DHT22;4030;52.362;9.206;2024-01-06T15:25:15;6.10;99.90
7970;DHT22;4030;52.362;9.206;2024-01-06T15:27:40;6.10;99.90
7970;DHT22;4030;52.362;9.206;2024-01-06T15:30:07;6.10;99.90
7970;DHT22;4030;52.362;9.206;2024-01-06T15:32:37;6.00;99.90
7970;DHT22;4030;52.362;9.206;2024-01-06T15:35:03;6.00;99.90
7970;DHT22;4030;52.362;9.206;2024-01-06T15:37:30;6.00;99.90
7970;DHT22;4030;52.362;9.206;2024-01-06T15:39:56;6.00;99.90
7970;DHT22;4030;52.362;9.206;2024-01-06T15:42:22;6.00;99.90
7970;DHT22;4030;52.362;9.206;2024-01-06T15:44:48;6.00;99.90
7970;DHT22;4030;52.362;9.206;2024-01-06T15:47:14;6.00;99.90
7970;DHT22;4030;52.362;9.206;2024-01-06T15:49:39;6.00;99.90
7970;DHT22;4030;52.362;9.206;2024-01-06T15:52:05;6.00;99.90
7970;DHT22;4030;52.362;9.206;2024-01-06T15:54:33;5.90;99.90
7970;DHT22;4030;52.362;9.206;2024-01-06T15:56:59;5.90;99.90
7970;DHT22;4030;52.362;9.206;2024-01-06T15:59:25;5.90;99.90
7970;DHT22;4030;52.362;9.206;2024-01-06T16:01:51;5.90;99.90
7970;DHT22;4030;52.362;9.206;2024-01-06T16:04:17;5.90;99.90
7970;DHT22;4030;52.362;9.206;2024-01-06T16:06:42;5.80;99.90
7970;DHT22;4030;52.362;9.206;2024-01-06T16:09:09;5.80;99.90
7970;DHT22;4030;52.362;9.206;2024-01-06T16:11:38;5.80;99.90
7970;DHT22;4030;52.362;9.206;2024-01-06T16:14:04;5.80;99.90
7970;DHT22;4030;52.362;9.206;2024-01-06T16:16:30;5.80;99.90
7970;DHT22;4030;52.362;9.206;2024-01-06T16:18:55;5.80;99.90